Time;durP1;ratioP1;P1;durP2;ratioP2;P2;SDS_P1;SDS_P2;PMS_P1;PMS_P2;Temp;Humidity;BMP_temperature;BMP_pressure;BME280_temperature;BME280_humidity;BME280_pressure;Samples;Min_cycle;Max_cycle;Signal;HPM_P1;HPM_P2
2022/09/05 00:02:00;;;;;;;2.20;1.92;;;;;;;16.81;70.68;96075.75;4999927;28;20701;-79
2022/09/05 00:04:51;;;;;;;2.28;2.00;;;;;;;16.80;71.11;96076.75;5009431;28;20214;-77
2022/09/05 00:07:29;;;;;;;4.82;2.22;;;;;;;16.75;71.42;96074.63;4982698;28;20212;-79
2022/09/05 00:10:05;;;;;;;2.40;2.20;;;;;;;16.68;72.12;96079.72;5004632;28;20215;-80
2022/09/05 00:12:31;;;;;;;2.58;2.17;;;;;;;16.65;72.22;96066.94;4987819;28;20183;-79
2022/09/05 00:15:09;;;;;;;2.15;2.03;;;;;;;16.66;72.42;96071.19;4990718;28;20275;-80
2022/09/05 00:18:00;;;;;;;2.47;2.00;;;;;;;16.71;72.22;96068.09;5004677;28;20619;-80
2022/09/05 00:20:33;;;;;;;2.35;2.10;;;;;;;16.72;72.32;96072.34;4990694;28;20255;-79
2022/09/05 00:23:34;;;;;;;4.03;1.92;;;;;;;16.74;72.76;96066.94;5004224;28;20206;-79
2022/09/05 00:26:33;;;;;;;1.98;1.88;;;;;;;16.71;72.91;96068.09;4956806;28;20223;-79
2022/09/05 00:29:02;;;;;;;2.85;2.30;;;;;;;16.73;72.87;96066.13;4988876;28;20188;-78
2022/09/05 00:31:38;;;;;;;2.65;2.25;;;;;;;16.69;72.85;96060.38;5006943;28;20272;-79
2022/09/05 00:34:12;;;;;;;2.17;1.98;;;;;;;16.72;72.89;96055.81;4988575;28;20225;-79
2022/09/05 00:36:46;;;;;;;3.08;2.58;;;;;;;16.71;72.81;96068.09;4984953;28;20203;-79
2022/09/05 00:39:20;;;;;;;2.35;2.15;;;;;;;16.74;73.16;96057.25;5006566;28;20186;-79
2022/09/05 00:41:53;;;;;;;2.83;2.17;;;;;;;16.81;72.44;96052.13;5005083;28;20191;-79
2022/09/05 00:44:19;;;;;;;2.38;2.17;;;;;;;16.75;73.21;96055.44;4982480;28;20588;-79
2022/09/05 00:46:55;;;;;;;2.35;2.03;;;;;;;16.77;72.73;96061.31;4967330;28;20220;-79
2022/09/05 00:49:26;;;;;;;2.60;2.38;;;;;;;16.63;73.67;96055.81;4991862;28;20183;-80
2022/09/05 00:51:59;;;;;;;2.53;2.33;;;;;;;16.59;73.87;96065.00;4996384;28;20751;-79
2022/09/05 00:54:40;;;;;;;3.10;2.13;;;;;;;16.68;73.41;96060.53;4989326;28;20183;-80
2022/09/05 00:57:11;;;;;;;2.30;1.98;;;;;;;16.67;73.33;96061.53;5004187;28;20265;-79
2022/09/05 01:00:14;;;;;;;3.80;2.15;;;;;;;16.65;74.01;96053.81;5009806;28;20261;-79
2022/09/05 01:03:08;;;;;;;3.03;2.22;;;;;;;16.62;74.24;96056.00;4993041;28;20208;-79
2022/09/05 01:06:03;;;;;;;2.97;2.50;;;;;;;16.54;74.32;96054.22;4976879;28;20179;-80
2022/09/05 01:08:58;;;;;;;2.72;2.30;;;;;;;16.52;74.28;96050.97;4988938;28;20739;-79
2022/09/05 01:11:51;;;;;;;2.30;2.00;;;;;;;16.52;74.34;96043.09;4994192;28;20176;-80
2022/09/05 01:14:25;;;;;;;2.88;2.28;;;;;;;16.46;74.71;96041.16;4975926;28;20188;-79
2022/09/05 01:17:11;;;;;;;3.10;2.55;;;;;;;16.41;74.98;96041.66;4993142;28;20219;-80
2022/09/05 01:20:15;;;;;;;3.85;2.65;;;;;;;16.42;75.20;96037.22;4982534;28;20199;-79
2022/09/05 01:22:59;;;;;;;2.30;2.15;;;;;;;16.44;75.14;96035.28;4978783;28;20691;-80
2022/09/05 01:25:48;;;;;;;3.72;2.60;;;;;;;16.45;75.15;96033.47;5005419;28;20179;-80
2022/09/05 01:28:22;;;;;;;5.22;2.60;;;;;;;16.44;75.22;96030.03;4991563;28;20195;-79
2022/09/05 01:30:54;;;;;;;4.03;2.60;;;;;;;16.43;75.00;96034.47;4990146;28;20197;-78
2022/09/05 01:33:52;;;;;;;2.47;2.28;;;;;;;16.49;74.79;96027.69;4976803;28;20226;-80
2022/09/05 01:36:57;;;;;;;4.10;2.53;;;;;;;16.47;75.00;96040.16;4977382;28;20771;-80
2022/09/05 01:39:40;;;;;;;4.03;2.67;;;;;;;16.50;75.06;96036.38;4981690;28;20271;-79
2022/09/05 01:42:40;;;;;;;2.65;2.45;;;;;;;16.49;75.36;96037.38;5007094;28;20447;-78
2022/09/05 01:45:15;;;;;;;3.25;2.35;;;;;;;16.49;75.07;96043.44;5010887;28;20185;-79
2022/09/05 01:47:59;;;;;;;2.33;2.13;;;;;;;16.50;75.17;96045.06;4994644;28;20233;-79
2022/09/05 01:50:42;;;;;;;3.03;2.50;;;;;;;16.53;75.30;96034.25;4974272;28;20221;-79
2022/09/05 01:53:24;;;;;;;2.70;2.50;;;;;;;16.50;75.39;96031.94;4993006;28;20187;-79
2022/09/05 01:56:33;;;;;;;4.22;2.40;;;;;;;16.47;75.27;96031.50;4985174;28;20175;-79
2022/09/05 01:59:46;;;;;;;3.13;2.40;;;;;;;16.36;75.83;96033.50;4984141;28;20666;-80
2022/09/05 02:02:22;;;;;;;2.97;2.53;;;;;;;16.32;75.87;96034.00;4911994;29;20238;-79
2022/09/05 02:05:09;;;;;;;3.95;2.42;;;;;;;16.34;76.22;96035.50;4896520;29;20309;-80
2022/09/05 02:07:55;;;;;;;4.20;2.50;;;;;;;16.38;76.31;96028.09;4903745;29;20217;-79
2022/09/05 02:10:55;;;;;;;2.60;2.40;;;;;;;16.41;75.89;96025.13;4908020;29;20194;-80
2022/09/05 02:13:27;;;;;;;3.10;2.30;;;;;;;16.43;76.13;96038.84;4858462;29;20303;-79
2022/09/05 02:16:29;;;;;;;2.92;2.63;;;;;;;16.39;76.33;96034.97;4859221;29;20215;-80
2022/09/05 02:19:21;;;;;;;7.05;2.47;;;;;;;16.35;76.15;96034.50;4860951;29;20187;-79
2022/09/05 02:21:59;;;;;;;2.67;2.47;;;;;;;16.32;76.33;96031.38;4849709;29;20229;-79
2022/09/05 02:24:52;;;;;;;4.95;2.30;;;;;;;16.28;76.94;96030.09;4833329;29;20195;-80
2022/09/05 02:27:41;;;;;;;2.55;2.33;;;;;;;16.31;76.70;96033.19;4857184;29;20323;-79
2022/09/05 02:30:13;;;;;;;2.70;2.38;;;;;;;16.29;77.53;96029.94;4856177;29;20657;-78
2022/09/05 02:33:01;;;;;;;3.67;2.70;;;;;;;16.40;76.87;96037.41;4857835;29;20728;-80
2022/09/05 02:35:30;;;;;;;2.50;2.30;;;;;;;16.43;76.35;96034.47;4872543;29;20218;-79
2022/09/05 02:38:14;;;;;;;2.95;2.70;;;;;;;16.49;76.39;96037.38;4926757;29;20232;-80
2022/09/05 02:40:44;;;;;;;3.20;2.05;;;;;;;16.51;76.09;96041.44;4918731;29;20631;-79
2022/09/05 02:43:29;;;;;;;3.22;2.55;;;;;;;16.58;75.78;96041.56;4933958;29;20295;-80
2022/09/05 02:45:57;;;;;;;2.92;2.58;;;;;;;16.51;76.12;96028.34;4932693;29;20192;-80
2022/09/05 02:49:01;;;;;;;3.10;2.80;;;;;;;16.47;76.13;96029.69;4988297;28;20203;-79
2022/09/05 02:51:52;;;;;;;3.65;2.40;;;;;;;16.42;76.09;96029.38;4943824;29;20200;-79
2022/09/05 02:54:22;;;;;;;2.10;1.88;;;;;;;16.46;76.07;96027.25;4912050;29;20197;-79
2022/09/05 02:56:55;;;;;;;2.90;2.50;;;;;;;16.42;76.05;96030.19;4933399;29;20309;-80
2022/09/05 02:59:34;;;;;;;3.53;2.38;;;;;;;16.48;75.89;96020.00;4920693;29;20198;-79
2022/09/05 03:02:19;;;;;;;2.83;2.00;;;;;;;16.47;75.79;96024.44;4934389;29;20793;-79
2022/09/05 03:04:50;;;;;;;2.80;2.10;;;;;;;16.45;75.63;96021.19;4946795;29;20216;-79
2022/09/05 03:07:43;;;;;;;2.63;2.35;;;;;;;16.53;75.64;96022.94;4938023;29;20213;-80
2022/09/05 03:10:31;;;;;;;2.47;2.28;;;;;;;16.52;75.25;96026.53;4920868;29;20193;-80
2022/09/05 03:13:28;;;;;;;3.38;2.45;;;;;;;16.52;75.29;96024.75;4952255;29;20284;-80
2022/09/05 03:16:12;;;;;;;5.13;2.50;;;;;;;16.53;75.76;96022.94;4919569;29;20193;-80
2022/09/05 03:18:58;;;;;;;2.58;2.22;;;;;;;16.62;75.61;96019.28;4947472;29;20284;-80
2022/09/05 03:21:32;;;;;;;2.95;2.75;;;;;;;16.58;76.00;96020.59;4928003;29;20188;-80
2022/09/05 03:24:16;;;;;;;2.80;2.40;;;;;;;16.59;75.38;96023.03;4936207;29;20181;-79
2022/09/05 03:27:20;;;;;;;2.78;2.50;;;;;;;16.61;75.92;96020.28;4986385;28;20359;-79
2022/09/05 03:29:58;;;;;;;2.30;2.10;;;;;;;16.62;75.70;96022.72;4995787;28;20506;-80
2022/09/05 03:32:44;;;;;;;3.22;2.50;;;;;;;16.64;75.49;96017.28;5000764;28;20203;-79
2022/09/05 03:35:31;;;;;;;3.35;2.75;;;;;;;16.70;74.92;96025.31;4995146;28;20781;-79
2022/09/05 03:38:11;;;;;;;2.60;2.22;;;;;;;16.74;74.95;96019.72;5008894;28;20239;-79
2022/09/05 03:41:33;;;;;;;2.38;2.17;;;;;;;16.68;74.88;96019.41;4981383;28;20296;-80
2022/09/05 03:44:12;;;;;;;3.28;2.30;;;;;;;16.65;74.95;96016.31;4958986;28;20195;-80
2022/09/05 03:46:51;;;;;;;3.30;2.40;;;;;;;16.55;75.06;96021.78;5010049;28;20295;-79
2022/09/05 03:49:34;;;;;;;3.40;2.40;;;;;;;16.49;75.71;96021.63;4987489;28;20206;-79
2022/09/05 03:52:28;;;;;;;4.38;2.60;;;;;;;16.46;75.68;96016.75;5001972;28;20202;-80
2022/09/05 03:55:12;;;;;;;4.78;2.60;;;;;;;16.42;75.99;96011.03;4991357;28;20270;-79
2022/09/05 03:58:05;;;;;;;2.50;2.30;;;;;;;16.39;76.20;96011.38;4995852;28;20210;-78
2022/09/05 04:00:34;;;;;;;2.63;2.40;;;;;;;16.39;76.67;96016.63;5010376;28;20183;-78
2022/09/05 04:03:14;;;;;;;2.95;2.28;;;;;;;16.35;76.67;96015.34;4977924;28;20239;-79
2022/09/05 04:05:44;;;;;;;2.50;2.30;;;;;;;16.33;76.52;96010.25;4978446;28;20667;-79
2022/09/05 04:08:31;;;;;;;3.13;2.50;;;;;;;16.27;77.01;96007.53;4984370;28;20230;-79
2022/09/05 04:11:01;;;;;;;2.90;2.60;;;;;;;16.26;77.05;96017.19;4992061;28;20180;-79
2022/09/05 04:13:26;;;;;;;2.47;2.28;;;;;;;16.30;77.22;96007.16;4995867;28;20251;-79
2022/09/05 04:16:12;;;;;;;3.45;2.47;;;;;;;16.26;77.00;96005.88;4981094;28;20219;-79
2022/09/05 04:18:42;;;;;;;2.58;2.38;;;;;;;16.22;77.42;96009.81;4978969;28;20271;-79
2022/09/05 04:21:12;;;;;;;2.80;2.60;;;;;;;16.22;77.31;96015.06;4987804;28;20191;-78
2022/09/05 04:23:50;;;;;;;3.53;2.60;;;;;;;16.20;77.58;96011.81;4995569;28;20246;-79
2022/09/05 04:26:54;;;;;;;3.10;2.80;;;;;;;16.21;77.21;96014.25;4995270;28;20265;-79
2022/09/05 04:29:43;;;;;;;3.75;2.70;;;;;;;16.21;77.43;96016.06;4956129;28;20205;-79
2022/09/05 04:32:24;;;;;;;2.40;2.20;;;;;;;16.23;77.52;96017.50;4989599;28;20172;-79
2022/09/05 04:35:04;;;;;;;3.47;2.55;;;;;;;16.24;77.07;96020.94;5006225;28;20194;-79
2022/09/05 04:37:49;;;;;;;2.90;2.35;;;;;;;16.25;77.52;96015.53;5000227;28;20731;-79
2022/09/05 04:40:38;;;;;;;5.20;2.55;;;;;;;16.30;77.28;96023.69;4993287;28;20199;-79
2022/09/05 04:43:27;;;;;;;4.70;2.88;;;;;;;16.33;76.90;96022.53;4993759;28;20497;-78
2022/09/05 04:46:14;;;;;;;3.03;2.60;;;;;;;16.32;76.76;96023.53;4993999;28;20663;-78
2022/09/05 04:49:05;;;;;;;3.35;2.63;;;;;;;16.34;76.80;96019.78;4983797;28;20191;-79
2022/09/05 04:52:01;;;;;;;3.75;2.58;;;;;;;16.48;76.16;96023.44;4991057;28;20574;-79
2022/09/05 04:54:34;;;;;;;3.83;2.60;;;;;;;16.55;75.97;96027.03;5012532;28;20730;-77
2022/09/05 04:57:27;;;;;;;2.53;2.30;;;;;;;16.67;75.04;96024.81;4993620;28;20207;-79
2022/09/05 05:00:17;;;;;;;3.72;2.47;;;;;;;16.77;75.29;96024.59;4991337;28;20262;-78
2022/09/05 05:02:48;;;;;;;2.50;2.30;;;;;;;16.95;74.25;96027.75;5004609;28;20269;-81
2022/09/05 05:05:20;;;;;;;2.72;2.53;;;;;;;17.03;73.74;96030.31;4986919;28;20718;-79
2022/09/05 05:07:56;;;;;;;2.65;2.33;;;;;;;17.13;73.44;96032.69;4984684;28;20294;-78
2022/09/05 05:10:27;;;;;;;3.15;2.38;;;;;;;17.26;72.87;96046.88;4991510;28;20189;-78
2022/09/05 05:12:58;;;;;;;2.42;2.25;;;;;;;17.40;72.53;96044.44;4991379;28;20670;-78
2022/09/05 05:15:25;;;;;;;3.45;2.40;;;;;;;17.48;71.78;96045.19;4987227;28;20191;-78
2022/09/05 05:17:59;;;;;;;2.50;2.20;;;;;;;17.51;71.58;96046.66;5003566;28;20208;-79
2022/09/05 05:20:56;;;;;;;3.70;2.38;;;;;;;17.63;70.70;96039.97;5001513;28;20640;-79
2022/09/05 05:23:30;;;;;;;3.15;2.40;;;;;;;17.70;70.96;96043.56;4982621;28;20199;-80
2022/09/05 05:25:58;;;;;;;2.17;2.00;;;;;;;17.68;70.67;96050.78;4993271;28;20179;-79
2022/09/05 05:28:55;;;;;;;2.63;2.25;;;;;;;17.75;71.27;96049.06;4991073;28;20184;-79
2022/09/05 05:31:26;;;;;;;3.45;2.97;;;;;;;17.74;70.50;96036.13;4987668;28;20198;-80
2022/09/05 05:33:52;;;;;;;2.40;2.20;;;;;;;17.82;70.40;96044.72;4987516;28;20172;-80
2022/09/05 05:36:23;;;;;;;3.28;2.40;;;;;;;17.90;70.16;96043.03;4992253;28;20213;-80
2022/09/05 05:38:56;;;;;;;2.85;2.58;;;;;;;17.98;69.98;96046.38;4995203;28;20655;-80
2022/09/05 05:41:30;;;;;;;4.60;2.38;;;;;;;17.98;69.95;96054.25;4986504;28;20646;-80
2022/09/05 05:43:57;;;;;;;2.63;2.38;;;;;;;17.97;70.34;96051.81;5005270;28;20210;-80
2022/09/05 05:46:30;;;;;;;3.55;2.13;;;;;;;17.98;70.44;96053.44;4971223;28;20274;-80
2022/09/05 05:49:13;;;;;;;2.72;2.22;;;;;;;18.04;69.82;96052.72;4976060;28;20180;-80
2022/09/05 05:51:52;;;;;;;2.97;2.20;;;;;;;18.06;69.81;96056.00;4982111;28;20190;-80
2022/09/05 05:54:28;;;;;;;3.97;2.20;;;;;;;18.14;69.21;96063.78;4995378;28;20187;-80
2022/09/05 05:57:18;;;;;;;2.95;2.65;;;;;;;18.25;69.13;96065.13;4993503;28;20687;-80
2022/09/05 06:00:02;;;;;;;2.90;2.70;;;;;;;18.30;69.02;96066.22;5004020;28;20560;-78
2022/09/05 06:03:03;;;;;;;2.40;2.17;;;;;;;18.45;68.70;96068.00;4985081;28;20195;-78
2022/09/05 06:05:43;;;;;;;2.90;2.15;;;;;;;18.37;69.11;96067.09;4983019;28;20211;-78
2022/09/05 06:08:17;;;;;;;3.03;2.33;;;;;;;18.57;68.79;96069.19;4976605;28;20249;-78
2022/09/05 06:11:03;;;;;;;2.55;2.30;;;;;;;18.75;68.63;96072.25;4982962;28;20194;-78
2022/09/05 06:13:58;;;;;;;3.53;2.45;;;;;;;18.88;68.58;96068.94;4990583;28;20560;-78
2022/09/05 06:16:51;;;;;;;2.78;2.08;;;;;;;19.20;66.80;96071.09;4971813;28;20243;-78
2022/09/05 06:19:37;;;;;;;2.63;2.42;;;;;;;19.59;65.30;96083.00;5006898;28;20334;-78
2022/09/05 06:22:22;;;;;;;2.50;2.13;;;;;;;19.76;64.75;96073.81;4992379;28;20207;-78
2022/09/05 06:25:04;;;;;;;2.40;2.20;;;;;;;19.78;64.77;96076.25;5008059;28;20215;-78
2022/09/05 06:28:04;;;;;;;2.60;2.40;;;;;;;20.12;63.68;96070.19;5006010;28;20297;-77
2022/09/05 06:30:36;;;;;;;3.78;2.13;;;;;;;20.08;63.83;96071.59;4995836;28;20187;-77
2022/09/05 06:33:07;;;;;;;2.35;2.15;;;;;;;20.45;63.00;96077.50;4986467;28;20610;-77
2022/09/05 06:36:03;;;;;;;2.88;2.13;;;;;;;20.69;62.70;96078.81;4994529;28;20188;-77
2022/09/05 06:38:50;;;;;;;2.78;2.22;;;;;;;20.85;61.84;96081.13;4979212;28;20184;-77
2022/09/05 06:41:24;;;;;;;2.33;2.13;;;;;;;21.01;60.71;96080.72;5018252;28;20186;-78
2022/09/05 06:44:27;;;;;;;3.17;2.10;;;;;;;21.01;61.46;96086.00;4995909;28;20219;-77
2022/09/05 06:46:56;;;;;;;2.70;2.20;;;;;;;21.19;60.93;96085.44;5005625;28;20305;-77
2022/09/05 06:49:24;;;;;;;3.40;2.38;;;;;;;21.39;59.90;96081.03;5004198;28;20242;-78
2022/09/05 06:52:06;;;;;;;2.60;2.30;;;;;;;21.42;59.60;96077.16;4997416;28;20566;-77
2022/09/05 06:55:08;;;;;;;2.33;2.13;;;;;;;21.46;59.75;96083.66;5004373;28;20182;-77
2022/09/05 06:57:44;;;;;;;2.45;2.05;;;;;;;21.58;59.72;96083.91;5011509;28;20203;-78
2022/09/05 07:00:46;;;;;;;2.30;2.10;;;;;;;21.83;59.38;96089.38;4977457;28;20554;-78
2022/09/05 07:03:36;;;;;;;3.33;2.20;;;;;;;21.92;58.86;96085.50;5000132;28;20202;-78
2022/09/05 07:06:09;;;;;;;2.40;2.20;;;;;;;21.94;57.97;96094.03;5017352;28;20209;-78
2022/09/05 07:08:58;;;;;;;2.20;2.00;;;;;;;22.19;57.79;96086.31;4997828;28;20184;-78
2022/09/05 07:11:39;;;;;;;2.85;2.10;;;;;;;22.27;58.65;96094.84;5006977;28;20188;-78
2022/09/05 07:14:18;;;;;;;2.67;2.22;;;;;;;22.27;57.59;96092.19;5009440;28;20276;-78
2022/09/05 07:16:52;;;;;;;2.28;2.00;;;;;;;22.27;58.36;96100.13;4977372;28;20211;-78
2022/09/05 07:19:24;;;;;;;2.72;2.40;;;;;;;22.23;58.41;96101.53;4997351;28;20193;-78
2022/09/05 07:22:12;;;;;;;2.60;2.40;;;;;;;22.42;56.80;96099.06;5015684;28;20596;-78
2022/09/05 07:24:40;;;;;;;3.28;2.22;;;;;;;22.40;56.72;96099.28;4994921;28;20567;-78
2022/09/05 07:27:07;;;;;;;2.60;2.40;;;;;;;22.26;56.93;96101.16;4992279;28;20213;-78
2022/09/05 07:29:44;;;;;;;3.65;2.55;;;;;;;22.14;58.26;96096.69;4982142;28;20191;-77
2022/09/05 07:32:14;;;;;;;3.10;2.80;;;;;;;22.10;58.27;96103.41;4977976;28;20187;-78
2022/09/05 07:34:41;;;;;;;2.95;2.40;;;;;;;22.08;59.83;96100.16;4997570;28;20237;-78
2022/09/05 07:37:09;;;;;;;3.92;2.08;;;;;;;22.04;60.57;96102.38;4982302;28;20757;-77
2022/09/05 07:39:39;;;;;;;3.72;3.47;;;;;;;21.81;59.71;96104.63;4992639;28;20672;-77
2022/09/05 07:42:08;;;;;;;3.35;2.67;;;;;;;21.52;61.11;96122.50;4985466;28;20258;-76
2022/09/05 07:44:50;;;;;;;3.08;2.83;;;;;;;21.53;60.47;96113.56;4986972;28;20215;-77
2022/09/05 07:47:31;;;;;;;3.78;2.90;;;;;;;21.28;60.94;96113.31;4975447;28;20777;-77
2022/09/05 07:50:03;;;;;;;3.72;2.80;;;;;;;21.24;61.48;96114.72;4979518;28;20191;-78
2022/09/05 07:52:28;;;;;;;3.88;2.83;;;;;;;21.45;61.50;96113.75;4979216;28;20321;-78
2022/09/05 07:54:57;;;;;;;3.65;2.83;;;;;;;21.60;62.09;96117.03;4986155;28;20191;-78
2022/09/05 07:57:28;;;;;;;2.85;2.60;;;;;;;21.45;63.25;96121.69;4989145;28;20298;-78
2022/09/05 07:59:55;;;;;;;3.97;2.80;;;;;;;21.58;62.32;96126.19;5004956;28;20190;-78
2022/09/05 08:02:20;;;;;;;2.60;2.40;;;;;;;21.62;61.67;96122.09;4980176;28;20215;-79
2022/09/05 08:04:45;;;;;;;2.60;2.40;;;;;;;22.03;60.94;96113.97;4981696;28;20551;-78
2022/09/05 08:07:21;;;;;;;3.70;2.80;;;;;;;22.33;60.24;96117.81;4995978;28;20266;-79
2022/09/05 08:09:50;;;;;;;2.78;2.50;;;;;;;22.57;60.68;96112.88;4990789;28;20242;-79
2022/09/05 08:12:23;;;;;;;4.03;2.63;;;;;;;22.80;59.79;96115.03;4989635;28;20179;-78
2022/09/05 08:15:01;;;;;;;3.10;2.55;;;;;;;22.57;57.80;96116.31;4992901;28;20749;-78
2022/09/05 08:17:26;;;;;;;2.78;2.50;;;;;;;22.70;56.41;96114.63;5000074;28;20219;-78
2022/09/05 08:20:13;;;;;;;2.35;2.15;;;;;;;22.77;58.12;96121.53;4980205;28;20273;-78
2022/09/05 08:22:47;;;;;;;2.67;2.15;;;;;;;23.00;55.41;96114.97;4993516;28;20211;-78
2022/09/05 08:25:16;;;;;;;2.60;2.40;;;;;;;23.05;56.29;96118.59;4979536;28;20186;-78
2022/09/05 08:28:02;;;;;;;3.22;2.70;;;;;;;23.22;55.41;96110.97;4979489;28;20231;-78
2022/09/05 08:30:34;;;;;;;3.72;2.67;;;;;;;23.08;54.48;96117.38;4998302;28;20266;-78
2022/09/05 08:33:03;;;;;;;2.33;2.13;;;;;;;22.99;52.81;96116.00;4979518;28;20570;-78
2022/09/05 08:35:38;;;;;;;2.50;2.30;;;;;;;23.04;53.08;96122.25;4980353;28;20222;-78
2022/09/05 08:38:06;;;;;;;3.42;2.33;;;;;;;23.07;52.40;96121.06;4975295;28;20685;-78
2022/09/05 08:40:36;;;;;;;2.53;2.33;;;;;;;23.12;52.71;96118.56;4988096;28;20215;-78
2022/09/05 08:43:02;;;;;;;4.57;2.35;;;;;;;22.81;53.61;96116.66;4994983;28;20586;-77
2022/09/05 08:45:37;;;;;;;3.92;2.67;;;;;;;23.03;54.33;96117.19;4979932;28;20215;-78
2022/09/05 08:48:43;;;;;;;3.78;2.67;;;;;;;23.02;51.76;96115.56;5010095;28;20243;-78
2022/09/05 08:51:33;;;;;;;5.50;2.70;;;;;;;22.86;53.17;96114.19;4992151;28;20180;-78
2022/09/05 08:53:59;;;;;;;5.20;2.72;;;;;;;23.06;50.55;96122.88;5006081;28;20190;-77
2022/09/05 08:56:32;;;;;;;2.63;2.43;;;;;;;23.01;51.51;96127.19;5002976;28;20719;-78
2022/09/05 08:59:36;;;;;;;2.33;2.22;;;;;;;23.14;49.80;96119.97;4980346;28;20430;-78
2022/09/05 09:02:22;;;;;;;2.50;2.30;;;;;;;23.25;48.77;96123.81;4997604;28;20206;-78
2022/09/05 09:05:12;;;;;;;4.45;2.45;;;;;;;23.22;51.29;96124.19;5011936;28;20228;-78
2022/09/05 09:08:00;;;;;;;3.30;2.33;;;;;;;23.15;52.47;96112.84;4994484;28;20195;-78
2022/09/05 09:10:37;;;;;;;2.85;2.65;;;;;;;23.29;51.76;96124.97;5005726;28;20187;-78
2022/09/05 09:13:34;;;;;;;3.28;2.40;;;;;;;23.39;51.52;96117.38;5008583;28;20179;-78
2022/09/05 09:16:05;;;;;;;2.90;2.33;;;;;;;23.32;52.51;96121.09;5009876;28;20235;-78
2022/09/05 09:18:48;;;;;;;2.92;2.63;;;;;;;23.44;51.26;96114.91;4997100;28;20205;-78
2022/09/05 09:21:32;;;;;;;3.40;2.45;;;;;;;23.48;52.62;96115.28;4995973;28;20264;-78
2022/09/05 09:24:16;;;;;;;3.17;2.85;;;;;;;23.50;53.76;96115.06;5004811;28;20218;-78
2022/09/05 09:26:50;;;;;;;4.05;2.70;;;;;;;23.38;54.18;96113.09;4995573;28;20222;-77
2022/09/05 09:29:16;;;;;;;3.67;3.00;;;;;;;23.47;53.27;96113.66;4993014;28;20178;-78
2022/09/05 09:31:54;;;;;;;3.92;2.72;;;;;;;23.48;54.03;96115.28;4995245;28;20190;-78
2022/09/05 09:34:25;;;;;;;3.05;2.75;;;;;;;23.47;53.02;96113.66;5010663;28;20673;-77
2022/09/05 09:37:10;;;;;;;3.78;2.92;;;;;;;23.42;52.44;96118.81;5008090;28;20293;-78
2022/09/05 09:40:12;;;;;;;3.85;2.90;;;;;;;23.53;53.25;96122.59;4985694;28;20180;-77
2022/09/05 09:42:56;;;;;;;7.22;2.40;;;;;;;23.90;51.86;96116.41;5000516;28;20208;-78
2022/09/05 09:45:53;;;;;;;3.58;2.65;;;;;;;24.05;52.37;96113.44;4969138;28;20192;-78
2022/09/05 09:48:39;;;;;;;4.38;2.47;;;;;;;24.07;51.34;96118.53;5008423;28;20258;-78
2022/09/05 09:51:45;;;;;;;3.35;2.15;;;;;;;24.08;49.76;96113.00;4994547;28;20195;-78
2022/09/05 09:54:29;;;;;;;4.22;2.45;;;;;;;24.06;50.39;96115.06;4993636;28;20191;-78
2022/09/05 09:57:23;;;;;;;13.27;3.28;;;;;;;24.20;50.48;96113.09;5006518;28;20211;-78
2022/09/05 10:00:11;;;;;;;2.80;2.38;;;;;;;24.28;48.26;96113.59;4993331;28;20238;-78
2022/09/05 10:03:00;;;;;;;5.07;2.60;;;;;;;24.41;49.18;96111.91;5009828;28;20213;-78
2022/09/05 10:05:50;;;;;;;4.85;2.53;;;;;;;24.39;47.28;96114.78;4979740;28;20278;-78
2022/09/05 10:08:52;;;;;;;14.73;3.33;;;;;;;24.56;48.87;96117.66;4978792;28;20183;-78
2022/09/05 10:11:37;;;;;;;2.70;2.50;;;;;;;24.53;47.08;96104.81;5001711;28;20257;-78
2022/09/05 10:14:30;;;;;;;5.95;2.60;;;;;;;24.54;48.70;96106.44;4995860;28;20218;-78
2022/09/05 10:17:15;;;;;;;7.95;3.10;;;;;;;24.63;48.58;96101.63;4972929;28;20203;-78
2022/09/05 10:19:53;;;;;;;6.47;2.88;;;;;;;24.52;48.15;96104.00;4978588;28;20318;-78
2022/09/05 10:22:42;;;;;;;5.88;2.72;;;;;;;24.56;47.07;96105.19;4996359;28;20199;-78
2022/09/05 10:25:16;;;;;;;7.40;2.58;;;;;;;24.54;46.65;96096.63;4975731;28;20202;-79
2022/09/05 10:28:04;;;;;;;38.10;5.72;;;;;;;24.84;48.35;96095.88;4991147;28;20229;-79
2022/09/05 10:30:51;;;;;;;19.27;3.33;;;;;;;24.72;47.50;96092.34;5012412;28;20179;-78
2022/09/05 10:33:34;;;;;;;11.05;3.00;;;;;;;24.64;47.92;96089.97;4997590;28;20212;-78
2022/09/05 10:36:20;;;;;;;7.47;2.83;;;;;;;24.53;48.58;96088.88;4978305;28;20206;-79
2022/09/05 10:38:51;;;;;;;5.38;2.72;;;;;;;24.71;47.83;96088.06;4988708;28;20241;-79
2022/09/05 10:41:21;;;;;;;5.57;2.95;;;;;;;24.60;46.30;96086.97;4981831;28;20172;-79
2022/09/05 10:43:50;;;;;;;4.20;2.72;;;;;;;24.77;46.85;96085.34;4995903;28;20199;-78
2022/09/05 10:46:25;;;;;;;4.68;2.60;;;;;;;24.89;46.03;96079.25;4976137;28;20712;-78
2022/09/05 10:48:58;;;;;;;3.67;2.88;;;;;;;24.68;46.21;96083.22;4990694;28;20274;-78
2022/09/05 10:51:42;;;;;;;3.65;2.80;;;;;;;24.65;47.49;96083.63;4988592;28;20251;-78
2022/09/05 10:54:21;;;;;;;2.70;2.50;;;;;;;24.70;46.16;96073.97;4989566;28;20678;-78
2022/09/05 10:56:49;;;;;;;3.10;2.58;;;;;;;24.90;45.78;96079.03;4999678;28;20711;-78
2022/09/05 10:59:19;;;;;;;3.35;2.75;;;;;;;24.97;45.56;96068.31;4981553;28;20643;-79
2022/09/05 11:02:03;;;;;;;2.72;2.53;;;;;;;25.22;44.99;96076.19;4989139;28;20691;-78
2022/09/05 11:05:02;;;;;;;6.20;2.60;;;;;;;25.30;45.20;96073.22;4988214;28;20665;-78
2022/09/05 11:08:04;;;;;;;6.88;2.60;;;;;;;25.28;45.14;96080.59;4991855;28;20845;-78
2022/09/05 11:10:43;;;;;;;3.47;2.40;;;;;;;25.32;45.77;96076.44;4977540;28;20190;-78
2022/09/05 11:13:40;;;;;;;2.85;2.65;;;;;;;25.47;44.78;96076.84;4995548;28;20204;-78
2022/09/05 11:16:44;;;;;;;4.40;2.50;;;;;;;25.25;45.40;96071.22;4997661;28;20200;-78
2022/09/05 11:19:21;;;;;;;3.38;2.88;;;;;;;25.14;44.90;96067.50;5009496;28;20274;-78
2022/09/05 11:21:58;;;;;;;4.78;2.75;;;;;;;25.21;45.02;96070.06;4995914;28;20235;-79
2022/09/05 11:24:30;;;;;;;8.63;3.42;;;;;;;25.34;45.64;96064.53;4988546;28;20195;-80
2022/09/05 11:27:06;;;;;;;3.92;2.60;;;;;;;25.59;43.43;96074.19;4991335;28;20219;-80
2022/09/05 11:29:47;;;;;;;3.30;2.80;;;;;;;25.27;44.33;96071.00;4980368;28;20183;-80
2022/09/05 11:32:24;;;;;;;3.28;2.67;;;;;;;25.40;44.17;96063.63;4972892;28;20183;-79
2022/09/05 11:35:20;;;;;;;5.47;2.70;;;;;;;25.36;43.42;96067.00;5005402;28;20788;-80
2022/09/05 11:37:59;;;;;;;3.25;2.90;;;;;;;25.28;44.22;96059.34;5004644;28;20241;-78
2022/09/05 11:40:46;;;;;;;4.22;2.72;;;;;;;25.65;43.40;96055.47;4984094;28;20201;-80
2022/09/05 11:43:48;;;;;;;3.05;2.72;;;;;;;25.77;43.61;96057.34;5007142;28;20231;-79
2022/09/05 11:46:24;;;;;;;2.83;2.50;;;;;;;25.82;41.92;96049.50;5000993;28;20224;-80
2022/09/05 11:49:11;;;;;;;10.75;3.05;;;;;;;25.55;41.89;96057.91;4991659;28;20305;-79
2022/09/05 11:52:09;;;;;;;4.22;2.45;;;;;;;25.43;42.50;96052.53;5008798;28;20237;-79
2022/09/05 11:55:09;;;;;;;5.97;2.58;;;;;;;25.74;42.36;96050.66;4986785;28;20229;-80
2022/09/05 11:57:57;;;;;;;3.13;2.55;;;;;;;25.69;41.07;96055.81;4996419;28;20624;-79
2022/09/05 12:00:33;;;;;;;2.42;2.25;;;;;;;26.08;40.75;96059.69;5014701;28;20186;-80
2022/09/05 12:03:37;;;;;;;3.15;2.40;;;;;;;26.19;39.74;96050.06;4992968;28;20219;-80
2022/09/05 12:06:16;;;;;;;2.70;2.20;;;;;;;26.60;39.08;96043.78;4989332;28;20227;-80
2022/09/05 12:09:10;;;;;;;2.58;2.38;;;;;;;26.71;39.27;96044.78;4995105;28;20186;-80
2022/09/05 12:11:47;;;;;;;2.53;2.30;;;;;;;26.61;39.21;96042.72;4996090;28;20176;-83
2022/09/05 12:14:39;;;;;;;4.15;2.85;;;;;;;26.87;39.67;96046.69;4975674;28;20266;-83
2022/09/05 12:17:37;;;;;;;3.83;2.47;;;;;;;26.63;38.96;96040.63;4990584;28;20227;-80
2022/09/05 12:20:10;;;;;;;3.33;2.58;;;;;;;26.53;38.49;96029.78;4982363;28;20180;-79
2022/09/05 12:22:37;;;;;;;2.50;2.30;;;;;;;26.54;39.71;96036.72;4979685;28;20203;-79
2022/09/05 12:25:12;;;;;;;3.17;2.58;;;;;;;26.20;39.30;96031.19;4994153;28;20172;-79
2022/09/05 12:27:38;;;;;;;4.70;2.60;;;;;;;25.82;40.52;96029.03;4981197;28;20255;-79
2022/09/05 12:30:09;;;;;;;2.70;2.47;;;;;;;25.77;39.83;96022.78;4993032;28;20206;-78
2022/09/05 12:32:48;;;;;;;2.60;2.40;;;;;;;25.81;39.82;96022.09;4994524;28;20250;-78
2022/09/05 12:35:45;;;;;;;5.28;3.05;;;;;;;26.02;41.09;96023.34;4995972;28;20186;-78
2022/09/05 12:38:23;;;;;;;3.45;2.70;;;;;;;26.38;40.20;96027.59;4909784;29;20201;-78
2022/09/05 12:41:10;;;;;;;3.75;2.78;;;;;;;26.64;39.65;96020.94;4904915;29;20199;-78
2022/09/05 12:43:41;;;;;;;4.38;2.90;;;;;;;26.72;39.55;96017.09;4911490;29;20714;-77